Time;durP1;ratioP1;P1;durP2;ratioP2;P2;SDS_P1;SDS_P2;PMS_P1;PMS_P2;Temp;Humidity;BMP_temperature;BMP_pressure;BME280_temperature;BME280_humidity;BME280_pressure;Samples;Min_cycle;Max_cycle;Signal;HPM_P1;HPM_P2
2020/12/10 00:00:28;;;;;;;7.15;5.50;;;;;;;16.98;52.10;100830.03;4867929;29;20061;-78
2020/12/10 00:02:53;;;;;;;7.60;5.43;;;;;;;16.99;52.17;100834.38;4869124;29;20065;-79
2020/12/10 00:05:19;;;;;;;7.40;5.22;;;;;;;16.98;52.11;100826.56;4869068;29;20065;-79
2020/12/10 00:07:44;;;;;;;7.47;5.07;;;;;;;16.97;51.88;100817.91;4868128;29;20041;-78
2020/12/10 00:10:10;;;;;;;8.02;5.28;;;;;;;16.98;52.11;100822.22;4867265;29;20068;-79
2020/12/10 00:12:43;;;;;;;6.35;4.97;;;;;;;16.96;51.94;100818.81;4849108;29;20033;-77
2020/12/10 00:15:10;;;;;;;9.13;5.40;;;;;;;16.95;51.98;100816.19;4882395;29;20025;-77
2020/12/10 00:17:35;;;;;;;6.13;4.97;;;;;;;16.96;51.82;100816.19;4881857;29;20121;-77
2020/12/10 00:20:01;;;;;;;6.60;5.35;;;;;;;16.96;51.93;100815.31;4850198;29;20380;-77
2020/12/10 00:22:27;;;;;;;6.90;5.05;;;;;;;16.96;51.93;100812.72;4865414;29;20032;-77
2020/12/10 00:24:52;;;;;;;7.43;5.00;;;;;;;16.94;51.99;100804.06;4864897;29;20037;-77
2020/12/10 00:27:22;;;;;;;6.18;4.75;;;;;;;16.95;51.99;100805.81;4881597;29;20491;-77
2020/12/10 00:29:48;;;;;;;7.30;5.50;;;;;;;16.94;51.90;100812.75;4846873;29;20061;-77
2020/12/10 00:32:13;;;;;;;7.05;5.07;;;;;;;16.94;52.06;100811.88;4881980;29;20484;-77
2020/12/10 00:34:40;;;;;;;6.63;5.07;;;;;;;16.93;51.88;100812.75;4849471;29;20025;-77
2020/12/10 00:37:06;;;;;;;5.75;4.90;;;;;;;16.94;52.15;100814.47;4865192;29;20479;-77
2020/12/10 00:39:33;;;;;;;6.13;4.63;;;;;;;16.92;51.78;100805.81;4864830;29;20051;-77
2020/12/10 00:41:58;;;;;;;5.85;4.63;;;;;;;16.92;51.79;100809.28;4881646;29;20040;-77
2020/12/10 00:44:24;;;;;;;6.57;4.43;;;;;;;16.93;52.00;100805.81;4865030;29;20025;-77
2020/12/10 00:46:49;;;;;;;6.75;4.90;;;;;;;16.93;51.87;100810.16;4864729;29;20045;-77
2020/12/10 00:49:15;;;;;;;6.35;4.60;;;;;;;16.93;51.77;100799.75;4865016;29;20029;-77
2020/12/10 00:51:45;;;;;;;5.75;4.55;;;;;;;16.92;51.88;100791.09;4881366;29;20069;-77
2020/12/10 00:54:10;;;;;;;6.47;4.35;;;;;;;16.91;51.94;100788.50;4865121;29;20044;-77
2020/12/10 00:56:36;;;;;;;5.78;4.22;;;;;;;16.91;51.71;100785.91;4848142;29;20477;-77
2020/12/10 00:59:01;;;;;;;5.43;4.32;;;;;;;16.89;51.78;100785.91;4832829;29;20049;-77
2020/12/10 01:01:26;;;;;;;5.68;4.30;;;;;;;16.93;51.73;100790.22;4876903;29;20052;-77
2020/12/10 01:03:52;;;;;;;6.55;4.68;;;;;;;16.91;51.71;100802.34;4850564;29;20037;-78
2020/12/10 01:06:17;;;;;;;5.88;4.32;;;;;;;16.90;51.77;100798.03;4863524;29;20053;-78
2020/12/10 01:08:42;;;;;;;6.60;4.47;;;;;;;16.88;51.70;100799.78;4864041;29;20045;-78
2020/12/10 01:11:08;;;;;;;5.10;4.10;;;;;;;16.88;51.73;100805.00;4864433;29;20029;-77
2020/12/10 01:13:33;;;;;;;5.55;4.20;;;;;;;16.86;51.88;100793.75;4855955;29;20058;-78
2020/12/10 01:16:00;;;;;;;5.50;4.28;;;;;;;16.87;51.64;100805.84;4864273;29;20040;-78
2020/12/10 01:18:26;;;;;;;4.70;4.10;;;;;;;16.88;51.42;100805.00;4845682;29;20389;-78
2020/12/10 01:20:51;;;;;;;6.15;4.55;;;;;;;16.87;51.75;100800.66;4864585;29;20044;-77
2020/12/10 01:23:17;;;;;;;5.63;4.32;;;;;;;16.87;51.64;100800.66;4864624;29;20064;-77
2020/12/10 01:25:42;;;;;;;5.20;4.18;;;;;;;16.88;51.57;100796.34;4863647;29;20051;-77
2020/12/10 01:28:07;;;;;;;5.03;3.72;;;;;;;16.87;51.57;100798.03;4848869;29;20052;-77
2020/12/10 01:30:33;;;;;;;6.15;4.47;;;;;;;16.86;51.41;100799.78;4864223;29;20037;-78
2020/12/10 01:32:58;;;;;;;5.63;4.07;;;;;;;16.86;51.49;100799.78;4864230;29;20037;-77
2020/12/10 01:35:23;;;;;;;4.90;4.20;;;;;;;16.86;51.40;100798.94;4864069;29;20041;-77
2020/12/10 01:37:49;;;;;;;4.85;3.97;;;;;;;16.85;51.64;100797.19;4848237;29;20036;-77
2020/12/10 01:40:14;;;;;;;5.40;3.75;;;;;;;16.85;51.45;100792.00;4880692;29;20079;-77
2020/12/10 01:42:40;;;;;;;5.10;4.30;;;;;;;16.85;51.73;100789.41;4867765;29;20496;-77
2020/12/10 01:45:05;;;;;;;5.63;4.20;;;;;;;16.83;51.59;100789.44;4884478;29;20042;-78
2020/12/10 01:47:31;;;;;;;6.13;4.22;;;;;;;16.84;51.59;100785.94;4849878;29;20113;-77
2020/12/10 01:49:57;;;;;;;4.15;3.50;;;;;;;16.84;51.38;100782.50;4864900;29;20441;-79
2020/12/10 01:52:22;;;;;;;4.88;3.65;;;;;;;16.84;51.20;100783.34;4870029;29;20120;-79
2020/12/10 01:54:47;;;;;;;5.07;3.90;;;;;;;16.84;51.46;100778.16;4886946;29;20052;-79
2020/12/10 01:57:13;;;;;;;4.93;3.80;;;;;;;16.83;51.45;100770.34;4867472;29;20116;-79
2020/12/10 01:59:38;;;;;;;5.00;3.78;;;;;;;16.83;51.43;100772.94;4832864;29;20033;-78
2020/12/10 02:02:04;;;;;;;4.80;3.60;;;;;;;16.82;51.47;100766.91;4881072;29;20105;-77
2020/12/10 02:04:33;;;;;;;4.75;3.80;;;;;;;16.83;51.44;100770.34;4880195;29;20097;-77
2020/12/10 02:06:58;;;;;;;5.28;4.00;;;;;;;16.82;51.36;100761.69;4863188;29;20025;-77
2020/12/10 02:09:24;;;;;;;4.63;3.70;;;;;;;16.81;51.46;100762.59;4848247;29;20029;-77
2020/12/10 02:11:51;;;;;;;4.90;3.88;;;;;;;16.82;51.44;100755.66;4863329;29;20089;-77
2020/12/10 02:14:16;;;;;;;5.85;3.95;;;;;;;16.82;51.59;100753.03;4863401;29;20113;-77
2020/12/10 02:16:42;;;;;;;4.47;3.50;;;;;;;16.81;51.25;100753.91;4861250;29;20468;-77
2020/12/10 02:19:08;;;;;;;4.95;3.97;;;;;;;16.80;51.33;100747.00;4879701;29;20021;-77
2020/12/10 02:21:34;;;;;;;4.28;3.72;;;;;;;16.80;51.56;100749.59;4847913;29;20498;-77
2020/12/10 02:23:59;;;;;;;4.57;3.80;;;;;;;16.80;51.16;100755.66;4861807;29;20041;-77
2020/12/10 02:26:25;;;;;;;4.75;3.78;;;;;;;16.80;51.45;100745.25;4845865;29;20032;-77
2020/12/10 02:28:51;;;;;;;4.70;3.53;;;;;;;16.78;51.31;100741.78;4855740;29;20037;-77
2020/12/10 02:31:21;;;;;;;5.20;3.88;;;;;;;16.80;51.39;100739.19;4861215;29;20141;-77
2020/12/10 02:33:47;;;;;;;4.10;3.35;;;;;;;16.79;51.38;100747.84;4877504;29;20033;-77
2020/12/10 02:36:12;;;;;;;4.15;3.35;;;;;;;16.81;51.14;100748.72;4860201;29;20067;-77
2020/12/10 02:38:38;;;;;;;4.72;3.70;;;;;;;16.79;51.29;100745.25;4858360;29;20033;-77
2020/12/10 02:41:03;;;;;;;5.65;3.20;;;;;;;16.80;51.05;100750.44;4875698;29;20081;-77
2020/12/10 02:43:28;;;;;;;4.63;3.50;;;;;;;16.79;51.26;100746.09;4846787;29;20044;-77
2020/12/10 02:45:54;;;;;;;4.50;3.15;;;;;;;16.77;51.51;100742.66;4853984;29;20072;-77
2020/12/10 02:48:19;;;;;;;4.05;3.30;;;;;;;16.78;51.30;100735.72;4874886;29;20052;-77
2020/12/10 02:50:44;;;;;;;4.63;3.70;;;;;;;16.76;51.11;100733.13;4862954;29;20028;-77
2020/12/10 02:53:10;;;;;;;5.53;3.60;;;;;;;16.78;51.23;100738.31;4879284;29;20384;-77
2020/12/10 02:55:35;;;;;;;4.72;3.40;;;;;;;16.77;51.41;100732.25;4878106;29;20059;-77
2020/12/10 02:58:01;;;;;;;4.55;3.38;;;;;;;16.77;51.13;100731.41;4845826;29;20049;-77
2020/12/10 03:00:27;;;;;;;4.18;3.45;;;;;;;16.76;51.03;100725.31;4862211;29;20036;-77
2020/12/10 03:02:52;;;;;;;5.10;3.38;;;;;;;16.76;51.13;100740.91;4877370;29;20048;-77
2020/12/10 03:05:18;;;;;;;4.85;3.15;;;;;;;16.75;51.22;100736.59;4862416;29;20029;-77
2020/12/10 03:07:43;;;;;;;7.65;3.35;;;;;;;16.77;51.17;100734.88;4878668;29;20029;-78
2020/12/10 03:10:08;;;;;;;4.28;3.40;;;;;;;16.77;51.15;100724.47;4859372;29;20084;-79
2020/12/10 03:12:34;;;;;;;4.68;3.40;;;;;;;16.76;51.24;100717.53;4846135;29;20036;-78
2020/12/10 03:14:59;;;;;;;4.50;3.05;;;;;;;16.75;51.13;100722.75;4854419;29;20032;-78
2020/12/10 03:17:24;;;;;;;3.75;3.20;;;;;;;16.76;51.02;100717.53;4844150;29;20088;-79
2020/12/10 03:19:50;;;;;;;3.88;3.00;;;;;;;16.73;51.10;100714.97;4862437;29;20044;-78
2020/12/10 03:22:16;;;;;;;4.78;3.10;;;;;;;16.75;51.09;100709.78;4846585;29;20033;-78
2020/12/10 03:24:41;;;;;;;3.70;3.03;;;;;;;16.75;50.85;100704.56;4862806;29;20033;-78
2020/12/10 03:27:07;;;;;;;3.92;3.10;;;;;;;16.74;51.06;100710.63;4847055;29;20048;-78
2020/12/10 03:29:32;;;;;;;3.95;3.00;;;;;;;16.74;50.99;100710.63;4854983;29;20033;-78
2020/12/10 03:31:58;;;;;;;3.55;3.13;;;;;;;16.74;51.06;100711.47;4821588;29;20033;-78
2020/12/10 03:34:23;;;;;;;4.43;3.10;;;;;;;16.73;51.08;100706.31;4862324;29;20033;-78
2020/12/10 03:36:50;;;;;;;3.97;3.30;;;;;;;16.72;51.19;100702.84;4841643;29;20484;-78
2020/12/10 03:39:17;;;;;;;3.30;2.72;;;;;;;16.72;51.11;100702.84;4847582;29;20061;-79
2020/12/10 03:41:44;;;;;;;3.13;2.83;;;;;;;16.70;51.12;100694.22;4862905;29;20029;-78
2020/12/10 03:44:09;;;;;;;3.95;2.80;;;;;;;16.71;51.13;100695.94;4847417;29;20040;-78
2020/12/10 03:46:35;;;;;;;3.63;3.15;;;;;;;16.71;51.35;100701.13;4848159;29;20485;-78
2020/12/10 03:49:00;;;;;;;3.70;2.72;;;;;;;16.70;51.16;100702.00;4862626;29;20033;-79
2020/12/10 03:51:25;;;;;;;3.97;3.05;;;;;;;16.70;51.12;100693.34;4864018;29;20440;-79
2020/12/10 03:53:51;;;;;;;3.53;2.92;;;;;;;16.71;51.15;100695.94;4875018;29;20029;-79
2020/12/10 03:56:16;;;;;;;3.20;2.75;;;;;;;16.68;50.99;100685.56;4835150;29;20461;-79
2020/12/10 03:58:41;;;;;;;2.95;2.60;;;;;;;16.68;50.90;100688.16;4860953;29;20385;-79
2020/12/10 04:01:07;;;;;;;3.42;2.50;;;;;;;16.68;51.10;100690.78;4882539;29;20415;-79
2020/12/10 04:03:34;;;;;;;3.35;2.53;;;;;;;16.68;51.15;100693.38;4865789;29;20392;-79
2020/12/10 04:05:59;;;;;;;2.65;2.42;;;;;;;16.69;51.11;100691.63;4866065;29;20414;-78
2020/12/10 04:08:24;;;;;;;4.40;2.50;;;;;;;16.67;50.92;100689.03;4865069;29;20037;-78
2020/12/10 04:10:50;;;;;;;3.00;2.45;;;;;;;16.67;50.83;100687.28;4850244;29;20064;-78
2020/12/10 04:13:15;;;;;;;3.80;2.70;;;;;;;16.68;50.92;100685.56;4865617;29;20429;-77
2020/12/10 04:15:41;;;;;;;3.67;2.92;;;;;;;16.67;50.93;100689.03;4864787;29;20563;-77
2020/12/10 04:18:06;;;;;;;2.97;2.65;;;;;;;16.64;51.03;100682.13;4865461;29;20032;-77
2020/12/10 04:20:31;;;;;;;3.33;2.90;;;;;;;16.64;51.19;100687.31;4865147;29;20059;-77
2020/12/10 04:22:57;;;;;;;3.25;2.67;;;;;;;16.65;50.70;100685.56;4847983;29;20064;-77
2020/12/10 04:25:22;;;;;;;2.85;2.33;;;;;;;16.64;51.15;100691.66;4849652;29;20463;-77
2020/12/10 04:27:48;;;;;;;3.47;2.70;;;;;;;16.65;50.93;100686.44;4881141;29;20500;-77
2020/12/10 04:30:13;;;;;;;3.33;2.65;;;;;;;16.64;50.94;100687.31;4862377;29;20047;-77
2020/12/10 04:32:38;;;;;;;3.65;2.58;;;;;;;16.66;50.72;100697.72;4879721;29;20033;-77
2020/12/10 04:35:04;;;;;;;3.33;2.63;;;;;;;16.66;50.89;100692.50;4882066;29;20092;-77
2020/12/10 04:37:29;;;;;;;2.95;2.53;;;;;;;16.65;50.97;100690.78;4880728;29;20067;-77
2020/12/10 04:39:55;;;;;;;3.17;2.58;;;;;;;16.62;50.83;100689.06;4864870;29;20044;-77
2020/12/10 04:42:20;;;;;;;2.60;2.17;;;;;;;16.62;50.63;100689.06;4865156;29;20033;-77
2020/12/10 04:44:46;;;;;;;2.88;2.28;;;;;;;16.61;50.69;100687.34;4881809;29;20033;-77
2020/12/10 04:47:12;;;;;;;2.67;2.22;;;;;;;16.62;50.88;100686.47;4881646;29;20392;-77
2020/12/10 04:49:39;;;;;;;3.00;2.35;;;;;;;16.62;50.56;100683.88;4864646;29;20384;-77
2020/12/10 04:52:06;;;;;;;2.95;2.28;;;;;;;16.60;50.89;100690.81;4865027;29;20040;-78
2020/12/10 04:54:33;;;;;;;2.88;2.55;;;;;;;16.61;50.84;100695.16;4852100;29;20021;-77
2020/12/10 04:56:58;;;;;;;2.63;2.33;;;;;;;16.59;50.68;100690.81;4864341;29;20361;-77
2020/12/10 04:59:23;;;;;;;3.40;2.22;;;;;;;16.59;50.76;100696.91;4864745;29;20089;-77
2020/12/10 05:01:49;;;;;;;3.05;2.25;;;;;;;16.59;50.71;100694.31;4880860;29;20136;-77
2020/12/10 05:04:14;;;;;;;3.10;2.40;;;;;;;16.59;50.92;100694.31;4864029;29;20052;-77
2020/12/10 05:06:52;;;;;;;3.35;2.33;;;;;;;16.60;50.79;100708.16;4881108;29;20037;-77
2020/12/10 05:09:18;;;;;;;2.70;2.20;;;;;;;16.60;50.57;100711.59;4863407;29;20033;-77
2020/12/10 05:11:44;;;;;;;2.58;2.28;;;;;;;16.59;50.61;100712.47;4880300;29;20036;-77
2020/12/10 05:14:09;;;;;;;2.83;2.50;;;;;;;16.59;50.55;100716.78;4839173;29;20029;-78
2020/12/10 05:16:35;;;;;;;2.78;2.15;;;;;;;16.60;50.82;100718.53;4864563;29;20077;-78
2020/12/10 05:19:20;;;;;;;2.70;2.20;;;;;;;16.56;50.55;100717.69;4849127;29;20040;-77
2020/12/10 05:22:00;;;;;;;2.92;2.30;;;;;;;16.57;50.91;100723.75;4872861;29;20112;-77
2020/12/10 05:24:27;;;;;;;3.20;2.35;;;;;;;16.58;50.78;100722.88;4851241;29;20032;-78
2020/12/10 05:27:13;;;;;;;2.40;2.00;;;;;;;16.55;50.71;100722.88;4848994;29;20059;-78
2020/12/10 05:29:38;;;;;;;2.90;2.50;;;;;;;16.55;50.56;100728.97;4863958;29;20050;-78
2020/12/10 05:32:04;;;;;;;3.30;2.50;;;;;;;16.58;50.61;100730.69;4879231;29;20472;-77
2020/12/10 05:34:30;;;;;;;4.43;2.55;;;;;;;16.55;50.54;100721.16;4864945;29;20804;-79
2020/12/10 05:36:56;;;;;;;2.30;2.10;;;;;;;16.54;50.54;100731.56;4868929;29;20124;-79
2020/12/10 05:39:21;;;;;;;3.15;2.30;;;;;;;16.54;50.58;100729.81;4849601;29;20097;-79
2020/12/10 05:41:53;;;;;;;3.15;2.63;;;;;;;16.55;50.61;100728.06;4852359;29;20104;-79
2020/12/10 05:44:23;;;;;;;3.00;2.30;;;;;;;16.53;50.76;100735.06;4867428;29;20037;-79
2020/12/10 05:46:51;;;;;;;2.40;1.98;;;;;;;16.54;50.60;100734.16;4867402;29;20428;-79
2020/12/10 05:49:18;;;;;;;3.35;2.08;;;;;;;16.56;50.79;100729.81;4881434;29;20021;-79
2020/12/10 05:51:48;;;;;;;5.22;2.30;;;;;;;16.62;51.09;100740.19;4864987;29;20032;-78
2020/12/10 05:54:18;;;;;;;10.68;4.15;;;;;;;16.75;51.09;100739.22;4864465;29;20032;-79
2020/12/10 05:57:02;;;;;;;7.90;3.80;;;;;;;16.85;51.17;100740.91;4846327;29;20124;-79
2020/12/10 05:59:28;;;;;;;19.70;4.22;;;;;;;16.94;51.04;100746.88;4863247;29;20036;-77
2020/12/10 06:02:05;;;;;;;11.20;3.80;;;;;;;16.99;51.23;100747.72;4851002;29;20060;-78
2020/12/10 06:04:31;;;;;;;7.43;3.58;;;;;;;16.99;51.22;100751.19;4862250;29;20041;-78
2020/12/10 06:06:58;;;;;;;9.05;3.80;;;;;;;17.01;51.21;100741.63;4841897;29;20044;-78
2020/12/10 06:09:25;;;;;;;8.93;3.35;;;;;;;17.04;51.08;100739.00;4880220;29;20460;-78
2020/12/10 06:12:00;;;;;;;5.82;3.22;;;;;;;17.06;51.13;100747.63;4856620;29;20037;-78
2020/12/10 06:14:25;;;;;;;7.40;3.17;;;;;;;17.05;51.07;100745.94;4862506;29;20029;-78
2020/12/10 06:17:06;;;;;;;6.45;3.13;;;;;;;17.08;51.11;100736.38;4844756;29;20044;-78
2020/12/10 06:19:36;;;;;;;5.30;2.97;;;;;;;17.08;51.14;100739.84;4845201;29;20481;-78
2020/12/10 06:22:25;;;;;;;8.35;3.40;;;;;;;17.09;50.99;100741.53;4851382;29;20050;-78
2020/12/10 06:24:51;;;;;;;5.90;3.05;;;;;;;17.07;51.15;100732.91;4853941;29;20501;-78
2020/12/10 06:27:23;;;;;;;5.47;3.08;;;;;;;17.11;51.01;100751.94;4839973;29;20041;-77
2020/12/10 06:29:49;;;;;;;6.95;3.20;;;;;;;17.12;51.03;100741.53;4863313;29;20073;-77
2020/12/10 06:32:16;;;;;;;4.97;2.90;;;;;;;17.12;51.43;100744.13;4862660;29;20501;-77
2020/12/10 06:34:55;;;;;;;9.05;3.08;;;;;;;17.12;51.20;100745.88;4862657;29;20025;-80
2020/12/10 06:37:25;;;;;;;5.25;3.17;;;;;;;17.13;51.18;100745.84;4856416;29;20104;-78
2020/12/10 06:40:03;;;;;;;5.60;3.08;;;;;;;17.17;51.20;100752.75;4873368;29;20025;-78
2020/12/10 06:42:47;;;;;;;5.45;3.35;;;;;;;17.15;51.06;100745.84;4861980;29;20073;-78
2020/12/10 06:45:30;;;;;;;5.75;2.70;;;;;;;17.16;50.86;100748.44;4829838;29;20362;-78
2020/12/10 06:47:56;;;;;;;5.13;2.88;;;;;;;17.17;51.11;100749.28;4840260;29;20080;-79
2020/12/10 06:50:27;;;;;;;4.35;2.78;;;;;;;17.17;51.04;100755.34;4862049;29;20037;-78
2020/12/10 06:53:17;;;;;;;6.35;2.65;;;;;;;17.17;50.94;100760.53;4876939;29;20855;-79
2020/12/10 06:55:58;;;;;;;4.07;2.80;;;;;;;17.18;50.96;100756.19;4852459;29;20077;-79
2020/12/10 06:58:40;;;;;;;4.82;2.88;;;;;;;17.17;51.20;100757.94;4862623;29;20120;-79
2020/12/10 07:01:25;;;;;;;6.93;2.55;;;;;;;17.18;51.03;100767.50;4862318;29;20124;-79
2020/12/10 07:03:55;;;;;;;5.50;2.90;;;;;;;17.18;51.03;100766.59;4859274;29;20396;-78
2020/12/10 07:06:21;;;;;;;5.50;2.97;;;;;;;17.19;51.02;100761.41;4862466;29;20207;-79
2020/12/10 07:09:07;;;;;;;6.38;2.97;;;;;;;17.19;50.93;100761.41;4844085;29;20485;-79
2020/12/10 07:11:38;;;;;;;4.97;2.70;;;;;;;17.19;50.77;100753.59;4854821;29;20025;-78
2020/12/10 07:14:21;;;;;;;3.95;2.53;;;;;;;17.20;50.96;100759.66;4858769;29;20056;-78
2020/12/10 07:16:47;;;;;;;4.15;2.58;;;;;;;17.21;50.79;100748.38;4859563;29;20039;-78
2020/12/10 07:19:12;;;;;;;3.95;2.70;;;;;;;17.25;50.81;100756.16;4829538;29;20037;-79
2020/12/10 07:21:39;;;;;;;4.38;2.42;;;;;;;17.23;50.93;100755.28;4844457;29;20120;-78
2020/12/10 07:24:04;;;;;;;4.03;2.40;;;;;;;17.21;50.72;100759.66;4843716;29;20037;-78
2020/12/10 07:26:30;;;;;;;4.53;2.47;;;;;;;17.22;50.69;100757.91;4835335;29;20476;-78
2020/12/10 07:28:55;;;;;;;3.53;2.40;;;;;;;17.21;50.60;100758.78;4840988;29;20041;-78
2020/12/10 07:31:20;;;;;;;4.18;2.30;;;;;;;17.21;50.54;100762.25;4834880;29;20089;-78
2020/12/10 07:33:46;;;;;;;2.83;2.08;;;;;;;17.22;50.79;100764.00;4880286;29;20081;-79
2020/12/10 07:36:19;;;;;;;3.50;2.17;;;;;;;17.24;50.43;100764.81;4839127;29;20481;-79
2020/12/10 07:38:45;;;;;;;5.20;2.53;;;;;;;17.26;50.64;100764.81;4848781;29;20037;-78
2020/12/10 07:41:19;;;;;;;4.03;2.30;;;;;;;17.27;50.59;100761.34;4863176;29;20124;-78
2020/12/10 07:43:51;;;;;;;3.22;2.20;;;;;;;17.29;50.37;100764.78;4865822;29;20084;-78
2020/12/10 07:46:17;;;;;;;4.25;2.30;;;;;;;17.28;50.30;100758.69;4882800;29;20032;-78
2020/12/10 07:48:43;;;;;;;3.53;2.17;;;;;;;17.30;50.46;100763.91;4843613;29;20396;-79
2020/12/10 07:51:20;;;;;;;3.42;2.25;;;;;;;17.30;50.37;100763.03;4852768;29;20033;-78
2020/12/10 07:53:47;;;;;;;2.97;2.00;;;;;;;17.31;50.05;100765.63;4853485;29;20033;-79
2020/12/10 07:56:22;;;;;;;3.42;2.13;;;;;;;17.32;50.29;100769.09;4845724;29;20033;-78
2020/12/10 07:59:09;;;;;;;3.35;2.30;;;;;;;17.35;50.38;100774.25;4872442;29;20289;-78
2020/12/10 08:01:56;;;;;;;4.45;2.30;;;;;;;17.34;50.42;100765.59;4860628;29;20057;-79
2020/12/10 08:04:23;;;;;;;4.82;2.50;;;;;;;17.37;50.31;100769.91;4838436;29;20041;-78
2020/12/10 08:06:51;;;;;;;4.43;2.17;;;;;;;17.37;50.29;100762.94;4855638;29;20053;-80
2020/12/10 08:09:20;;;;;;;3.47;2.22;;;;;;;17.39;50.28;100770.75;4864164;29;20537;-79
2020/12/10 08:11:53;;;;;;;2.63;2.00;;;;;;;17.38;50.20;100767.28;4885622;29;20037;-79
2020/12/10 08:14:29;;;;;;;2.80;2.13;;;;;;;17.40;50.25;100775.94;4847415;29;20033;-79
2020/12/10 08:16:55;;;;;;;4.45;2.17;;;;;;;17.42;50.14;100779.41;4851878;29;20041;-80
2020/12/10 08:19:32;;;;;;;3.35;2.20;;;;;;;17.42;50.00;100771.59;4834789;29;20085;-79
2020/12/10 08:21:59;;;;;;;2.53;1.98;;;;;;;17.42;50.25;100771.59;4867190;29;20121;-79
2020/12/10 08:24:37;;;;;;;3.13;2.28;;;;;;;17.45;50.07;100773.28;4836390;29;20411;-79
2020/12/10 08:27:05;;;;;;;3.22;2.10;;;;;;;17.46;49.90;100781.09;4874379;29;20045;-79
2020/12/10 08:29:30;;;;;;;3.90;2.22;;;;;;;17.45;49.92;100774.16;4850958;29;20053;-79
2020/12/10 08:32:08;;;;;;;3.13;2.10;;;;;;;17.46;49.77;100786.31;4859579;29;20089;-79
2020/12/10 08:34:33;;;;;;;3.03;2.00;;;;;;;17.46;49.86;100786.31;4851075;29;20063;-79
2020/12/10 08:37:09;;;;;;;6.32;2.03;;;;;;;17.44;49.86;100774.16;4851603;29;20112;-79
2020/12/10 08:39:38;;;;;;;3.10;1.85;;;;;;;17.45;49.95;100783.69;4850823;29;20054;-79
2020/12/10 08:42:05;;;;;;;2.78;1.80;;;;;;;17.44;49.85;100785.44;4867054;29;20033;-79
2020/12/10 08:44:45;;;;;;;2.88;2.10;;;;;;;17.46;49.85;100786.31;4883055;29;20110;-79
2020/12/10 08:47:10;;;;;;;2.83;1.95;;;;;;;17.45;49.77;100783.69;4859926;29;20025;-79
2020/12/10 08:49:36;;;;;;;2.28;1.65;;;;;;;17.44;49.84;100788.06;4835204;29;20029;-79
2020/12/10 08:52:03;;;;;;;3.40;1.90;;;;;;;17.44;49.77;100777.66;4839159;29;20033;-79
2020/12/10 08:54:37;;;;;;;2.83;1.90;;;;;;;17.46;49.79;100781.09;4867309;29;20037;-79
2020/12/10 08:57:07;;;;;;;3.58;1.70;;;;;;;17.45;49.71;100781.97;4847107;29;20446;-79
2020/12/10 08:59:33;;;;;;;3.28;1.98;;;;;;;17.45;49.95;100784.56;4826716;29;20029;-79
2020/12/10 09:02:01;;;;;;;2.30;1.70;;;;;;;17.45;49.71;100781.97;4846744;29;20416;-79
2020/12/10 09:04:26;;;;;;;3.88;1.70;;;;;;;17.49;49.63;100785.41;4881204;29;20033;-79
2020/12/10 09:06:51;;;;;;;2.60;1.67;;;;;;;17.48;49.97;100784.53;4834721;29;20124;-79
2020/12/10 09:09:17;;;;;;;2.45;1.90;;;;;;;17.48;49.73;100789.75;4834904;29;20033;-79
2020/12/10 09:11:46;;;;;;;2.72;1.90;;;;;;;17.49;49.75;100788.00;4879530;29;20492;-79
2020/12/10 09:14:11;;;;;;;2.33;1.73;;;;;;;17.48;49.70;100791.47;4862919;29;20461;-79
2020/12/10 09:16:37;;;;;;;2.70;1.75;;;;;;;17.53;49.62;100789.69;4828945;29;20090;-79
2020/12/10 09:19:02;;;;;;;1.90;1.60;;;;;;;17.54;49.50;100790.56;4855547;29;20040;-78
2020/12/10 09:21:58;;;;;;;3.75;1.60;;;;;;;17.55;49.56;100787.06;4846848;29;20045;-78
2020/12/10 09:24:23;;;;;;;3.20;1.80;;;;;;;17.58;49.23;100793.09;4863593;29;20045;-78
2020/12/10 09:26:49;;;;;;;4.13;1.50;;;;;;;17.60;49.33;100787.91;4848008;29;20040;-78
2020/12/10 09:29:14;;;;;;;2.13;1.55;;;;;;;17.61;49.32;100787.00;4848509;29;20049;-78
2020/12/10 09:31:39;;;;;;;2.30;1.73;;;;;;;17.67;49.14;100785.19;4848624;29;20115;-77
2020/12/10 09:34:09;;;;;;;3.08;1.80;;;;;;;17.68;49.03;100779.13;4846478;29;20100;-78
2020/12/10 09:36:34;;;;;;;1.88;1.48;;;;;;;17.69;49.10;100780.84;4845550;29;20131;-78
2020/12/10 09:39:00;;;;;;;3.30;1.98;;;;;;;17.70;49.00;100781.69;4878298;29;20085;-78
2020/12/10 09:41:26;;;;;;;2.97;1.70;;;;;;;17.73;49.09;100786.03;4833594;29;20140;-78
2020/12/10 09:43:51;;;;;;;2.35;1.60;;;;;;;17.76;48.97;100781.63;4863575;29;20539;-78
2020/12/10 09:46:17;;;;;;;3.10;1.67;;;;;;;17.72;49.11;100779.94;4851023;29;20047;-78
2020/12/10 09:48:42;;;;;;;1.70;1.33;;;;;;;17.75;49.14;100776.47;4862856;29;20392;-78
2020/12/10 09:51:08;;;;;;;2.97;1.65;;;;;;;17.74;49.34;100780.78;4830910;29;20048;-77
2020/12/10 09:53:41;;;;;;;5.10;1.70;;;;;;;17.74;49.16;100779.94;4860122;29;20116;-78
2020/12/10 09:58:43;;;;;;;3.08;1.70;;;;;;;17.78;49.11;100779.03;4848526;29;20071;-78
2020/12/10 10:01:13;;;;;;;2.20;1.70;;;;;;;17.81;48.90;100776.38;4832700;29;20076;-78
2020/12/10 10:03:40;;;;;;;1.77;1.50;;;;;;;17.80;49.38;100772.91;4863520;29;20044;-78
2020/12/10 10:06:10;;;;;;;2.22;1.45;;;;;;;17.82;49.21;100773.78;4856863;29;20037;-78
2020/12/10 10:08:36;;;;;;;1.38;1.20;;;;;;;17.81;49.02;100771.16;4863062;29;20021;-78
2020/12/10 10:11:04;;;;;;;2.33;1.60;;;;;;;17.81;49.11;100769.44;4863406;29;20041;-78
2020/12/10 10:13:31;;;;;;;4.07;1.52;;;;;;;17.82;49.44;100770.34;4880016;29;20048;-78
2020/12/10 10:15:56;;;;;;;2.22;1.63;;;;;;;17.82;49.07;100768.59;4844792;29;20029;-78
2020/12/10 10:18:22;;;;;;;1.92;1.35;;;;;;;17.84;48.98;100773.78;4847808;29;20032;-78
2020/12/10 10:20:48;;;;;;;2.17;1.50;;;;;;;17.84;48.96;100774.63;4847650;29;20045;-78
2020/12/10 10:23:14;;;;;;;1.80;1.27;;;;;;;17.85;48.70;100778.94;4848234;29;20084;-78
2020/12/10 10:25:39;;;;;;;2.13;1.50;;;;;;;17.85;48.85;100781.56;4857439;29;20144;-78
2020/12/10 10:28:07;;;;;;;2.92;1.40;;;;;;;17.85;48.94;100778.94;4830031;29;20045;-78
2020/12/10 10:30:34;;;;;;;2.17;1.48;;;;;;;17.83;48.93;100783.34;4832463;29;20408;-78
2020/12/10 10:33:00;;;;;;;1.40;1.30;;;;;;;17.86;48.62;100785.91;4876072;29;20397;-78
2020/12/10 10:35:25;;;;;;;2.15;1.48;;;;;;;17.86;48.74;100782.44;4863096;29;20128;-78
2020/12/10 10:38:13;;;;;;;1.80;1.40;;;;;;;17.89;48.79;100787.59;4847760;29;20032;-78
2020/12/10 10:40:39;;;;;;;2.97;1.50;;;;;;;17.91;48.80;100782.38;4859047;29;20042;-78
2020/12/10 10:43:05;;;;;;;1.65;1.33;;;;;;;17.90;48.82;100778.94;4854371;29;20035;-79
2020/12/10 10:45:34;;;;;;;1.60;1.23;;;;;;;17.89;48.44;100775.44;4846830;29;20041;-80
2020/12/10 10:48:00;;;;;;;1.65;1.23;;;;;;;17.91;48.71;100779.78;4851322;29;20057;-79
2020/12/10 10:50:25;;;;;;;1.55;1.30;;;;;;;17.92;48.67;100771.97;4862680;29;20031;-79
2020/12/10 10:52:52;;;;;;;1.92;1.30;;;;;;;17.89;48.59;100772.81;4832756;29;20045;-80
2020/12/10 10:55:37;;;;;;;2.85;1.30;;;;;;;17.92;48.71;100773.69;4878776;29;20494;-77
2020/12/10 10:58:02;;;;;;;2.88;1.40;;;;;;;17.94;48.84;100772.78;4859503;29;20040;-77
2020/12/10 11:00:29;;;;;;;3.13;1.60;;;;;;;17.92;48.75;100766.75;4843916;29;20069;-77
2020/12/10 11:02:56;;;;;;;3.78;1.65;;;;;;;17.94;49.12;100766.72;4861865;29;20056;-77
2020/12/10 11:05:21;;;;;;;4.25;1.77;;;;;;;17.96;49.30;100760.59;4861134;29;20041;-77
2020/12/10 11:07:48;;;;;;;2.45;1.70;;;;;;;17.94;49.34;100754.53;4862276;29;20043;-80
2020/12/10 11:10:16;;;;;;;2.25;1.50;;;;;;;17.95;49.45;100756.28;4849563;29;20060;-80
2020/12/10 11:12:43;;;;;;;2.67;1.80;;;;;;;17.96;49.25;100758.00;4854964;29;20030;-80
2020/12/10 11:15:08;;;;;;;3.42;1.73;;;;;;;17.95;49.15;100756.28;4871185;29;20079;-82
2020/12/10 11:17:34;;;;;;;3.88;1.90;;;;;;;17.95;49.22;100752.84;4883212;29;20029;-81
2020/12/10 11:20:02;;;;;;;2.92;1.50;;;;;;;17.97;49.14;100754.53;4883261;29;20036;-81
2020/12/10 11:22:27;;;;;;;2.35;1.70;;;;;;;17.98;48.81;100755.38;4863453;29;20030;-80
2020/12/10 11:24:57;;;;;;;2.00;1.48;;;;;;;17.96;49.08;100750.19;4837364;29;20044;-80
2020/12/10 11:27:22;;;;;;;3.30;1.55;;;;;;;17.98;49.13;100745.81;4861912;29;20037;-79
2020/12/10 11:29:48;;;;;;;2.55;1.60;;;;;;;17.98;48.72;100738.00;4829926;29;20044;-79